Time,TemperatureF,DewpointF,PressureIn,WindDirection,WindDirectionDegrees,WindSpeedMPH,WindSpeedGustMPH,Humidity,HourlyPrecipIn,Conditions,Clouds,dailyrainin,SoftwareType,DateUTC
2013-06-08 13:46:00,76.6,58.2,29.94,NNE,22,3.2,-999.0,53,-99.99,,,0.00,Acu-Link.com,2013-06-08 20:46:00,
2013-06-08 14:01:00,76.1,57.7,29.95,NE,45,7.3,-999.0,53,-99.99,,,0.00,Acu-Link.com,2013-06-08 21:01:00,
2013-06-08 14:16:00,76.3,57.4,29.96,WNW,292,3.7,-999.0,52,-99.99,,,0.00,Acu-Link.com,2013-06-08 21:16:00,
2013-06-08 14:31:00,74.7,55.9,29.94,NW,315,6.3,-999.0,52,-99.99,,,0.00,Acu-Link.com,2013-06-08 21:31:00,
2013-06-08 14:47:00,75.4,55.5,29.94,West,270,4.7,-999.0,50,-99.99,,,0.00,Acu-Link.com,2013-06-08 21:47:00,
2013-06-08 15:02:00,74.8,54.9,29.94,ENE,67,5.8,-999.0,50,-99.99,,,0.00,Acu-Link.com,2013-06-08 22:02:00,
2013-06-08 15:17:00,74.1,54.8,29.94,NNW,337,4.7,-999.0,51,-99.99,,,0.00,Acu-Link.com,2013-06-08 22:17:00,
2013-06-08 15:32:00,73.9,53.5,29.95,NE,45,5.3,-999.0,49,-99.99,,,0.00,Acu-Link.com,2013-06-08 22:32:00,
2013-06-08 15:48:00,72.1,51.3,29.94,NE,45,7.8,-999.0,48,-99.99,,,0.00,Acu-Link.com,2013-06-08 22:48:00,
2013-06-08 16:03:00,72.3,52.6,29.94,NE,45,4.2,-999.0,50,-99.99,,,0.00,Acu-Link.com,2013-06-08 23:03:00,
2013-06-08 16:18:00,72.9,53.2,29.93,SSE,157,4.2,-999.0,50,-99.99,,,0.00,Acu-Link.com,2013-06-08 23:18:00,
2013-06-08 16:33:00,72.7,52.4,29.93,East,90,6.8,-999.0,49,-99.99,,,0.00,Acu-Link.com,2013-06-08 23:33:00,
2013-06-08 16:48:00,71.6,52.5,29.94,ENE,67,5.3,-999.0,51,-99.99,,,0.00,Acu-Link.com,2013-06-08 23:48:00,
2013-06-08 17:03:00,70.7,51.7,29.94,East,90,6.3,-999.0,51,-99.99,,,0.00,Acu-Link.com,2013-06-09 00:03:00,
2013-06-08 17:19:00,69.8,51.9,29.95,East,90,9.4,-999.0,53,-99.99,,,0.00,Acu-Link.com,2013-06-09 00:19:00,
2013-06-08 17:34:00,69.1,51.2,29.94,NE,45,5.3,-999.0,53,-99.99,,,0.00,Acu-Link.com,2013-06-09 00:34:00,
2013-06-08 17:49:00,69.6,50.7,29.94,NW,315,7.3,-999.0,51,-99.99,,,0.00,Acu-Link.com,2013-06-09 00:49:00,
2013-06-08 18:04:00,69.6,51.2,29.94,NNE,22,4.2,-999.0,52,-99.99,,,0.00,Acu-Link.com,2013-06-09 01:04:00,
2013-06-08 18:19:00,69.3,50.9,29.95,NNE,22,8.9,-999.0,52,-99.99,,,0.00,Acu-Link.com,2013-06-09 01:19:00,
2013-06-08 18:35:00,68.9,50.5,29.94,WSW,247,4.2,-999.0,52,-99.99,,,0.00,Acu-Link.com,2013-06-09 01:35:00,
2013-06-08 18:50:00,68.7,50.9,29.95,NW,315,6.8,-999.0,53,-99.99,,,0.00,Acu-Link.com,2013-06-09 01:50:00,
2013-06-08 19:05:00,67.5,51.2,29.93,North,0,3.7,-999.0,56,-99.99,,,0.00,Acu-Link.com,2013-06-09 02:05:00,
2013-06-08 19:20:00,66.2,50.5,29.95,NE,45,4.7,-999.0,57,-99.99,,,0.00,Acu-Link.com,2013-06-09 02:20:00,
2013-06-08 19:35:00,65.7,51.0,29.94,WSW,247,4.7,-999.0,59,-99.99,,,0.00,Acu-Link.com,2013-06-09 02:35:00,
2013-06-08 19:51:00,64.4,50.7,29.94,NNW,337,5.8,-999.0,61,-99.99,,,0.00,Acu-Link.com,2013-06-09 02:51:00,
2013-06-08 20:06:00,63.0,50.6,29.95,NE,45,7.3,-999.0,64,-99.99,,,0.00,Acu-Link.com,2013-06-09 03:06:00,
2013-06-08 20:21:00,62.2,50.3,29.95,NNE,22,4.7,-999.0,65,-99.99,,,0.00,Acu-Link.com,2013-06-09 03:21:00,
2013-06-08 20:37:00,60.4,49.8,29.95,NNW,337,2.7,-999.0,68,-99.99,,,0.00,Acu-Link.com,2013-06-09 03:37:00,
2013-06-08 20:52:00,59.4,50.0,29.97,NE,45,5.3,-999.0,71,-99.99,,,0.00,Acu-Link.com,2013-06-09 03:52:00,
2013-06-08 21:07:00,58.1,49.9,29.96,NE,45,3.7,-999.0,74,-99.99,,,0.00,Acu-Link.com,2013-06-09 04:07:00,
2013-06-08 21:23:00,57.2,49.7,29.97,NNE,22,3.2,-999.0,76,-99.99,,,0.00,Acu-Link.com,2013-06-09 04:23:00,
2013-06-08 21:38:00,56.5,49.7,29.98,WNW,292,2.2,-999.0,78,-99.99,,,0.00,Acu-Link.com,2013-06-09 04:38:00,
2013-06-08 21:53:00,55.9,49.8,29.97,NNE,22,3.7,-999.0,80,-99.99,,,0.00,Acu-Link.com,2013-06-09 04:53:00,
2013-06-08 22:08:00,55.2,49.8,29.98,North,0,2.2,-999.0,82,-99.99,,,0.00,Acu-Link.com,2013-06-09 05:08:00,
2013-06-08 22:24:00,54.7,50.0,29.99,East,90,0.0,-999.0,84,-99.99,,,0.00,Acu-Link.com,2013-06-09 05:24:00,
2013-06-08 22:39:00,53.6,49.5,29.98,ESE,112,0.0,-999.0,86,-99.99,,,0.00,Acu-Link.com,2013-06-09 05:39:00,
2013-06-08 22:54:00,52.7,49.2,29.97,ESE,112,0.0,-999.0,88,-99.99,,,0.00,Acu-Link.com,2013-06-09 05:54:00,
2013-06-08 23:10:00,52.0,49.2,29.99,ESE,112,0.0,-999.0,90,-99.99,,,0.00,Acu-Link.com,2013-06-09 06:10:00,
2013-06-08 23:25:00,51.4,48.9,29.97,ESE,112,0.0,-999.0,91,-99.99,,,0.00,Acu-Link.com,2013-06-09 06:25:00,
2013-06-08 23:40:00,50.9,48.7,29.97,ESE,112,0.0,-999.0,92,-99.99,,,0.00,Acu-Link.com,2013-06-09 06:40:00,
2013-06-08 23:55:00,50.7,48.8,29.97,ESE,112,0.0,-999.0,93,-99.99,,,0.00,Acu-Link.com,2013-06-09 06:55:00,